Time;durP1;ratioP1;P1;durP2;ratioP2;P2;SDS_P1;SDS_P2;PMS_P1;PMS_P2;Temp;Humidity;BMP_temperature;BMP_pressure;BME280_temperature;BME280_humidity;BME280_pressure;Samples;Min_cycle;Max_cycle;Signal;HPM_P1;HPM_P2
2021/08/03 00:00:54;;;;;;;0.80;0.70;;;15.00;99.90;;;;;;5030891;28;20823;-75
2021/08/03 00:03:33;;;;;;;0.80;0.70;;;14.90;99.90;;;;;;5032011;28;20461;-74
2021/08/03 00:06:08;;;;;;;1.73;1.63;;;14.80;99.90;;;;;;5022717;28;20533;-76
2021/08/03 00:08:38;;;;;;;1.20;1.00;;;14.80;99.90;;;;;;5003606;28;20436;-76
2021/08/03 00:11:05;;;;;;;1.23;0.80;;;14.70;99.90;;;;;;5031283;28;20434;-76
2021/08/03 00:13:32;;;;;;;1.10;1.00;;;14.70;99.90;;;;;;5013278;28;20480;-75
2021/08/03 00:16:09;;;;;;;1.73;0.70;;;14.70;99.90;;;;;;5011218;28;20478;-74
2021/08/03 00:18:41;;;;;;;0.87;0.70;;;14.60;99.90;;;;;;5002468;28;20798;-74
2021/08/03 00:21:08;;;;;;;1.47;0.83;;;14.60;99.90;;;;;;5027605;28;20438;-76
2021/08/03 00:23:36;;;;;;;1.23;1.13;;;14.50;99.90;;;;;;5016912;28;20480;-74
2021/08/03 00:26:02;;;;;;;0.70;0.60;;;14.50;99.90;;;;;;5012707;28;20438;-74
2021/08/03 00:28:28;;;;;;;0.73;0.53;;;14.40;99.90;;;;;;5030584;28;20471;-74
2021/08/03 00:30:53;;;;;;;0.80;0.70;;;14.40;99.90;;;;;;5031022;28;20771;-74
2021/08/03 00:33:19;;;;;;;0.70;0.60;;;14.40;99.90;;;;;;5031559;28;20176;-75
2021/08/03 00:35:50;;;;;;;1.00;0.90;;;14.50;99.90;;;;;;5016811;28;20211;-73
2021/08/03 00:38:16;;;;;;;1.20;0.77;;;14.50;99.90;;;;;;5025469;28;21050;-74
2021/08/03 00:40:58;;;;;;;6.30;1.70;;;14.60;99.90;;;;;;5003559;28;20426;-74
2021/08/03 00:43:24;;;;;;;1.00;0.87;;;14.70;99.90;;;;;;5012261;28;20783;-74
2021/08/03 00:45:49;;;;;;;1.60;1.50;;;14.60;99.90;;;;;;5012619;28;20438;-74
2021/08/03 00:48:15;;;;;;;2.10;1.13;;;14.70;99.90;;;;;;5011935;28;20183;-74
2021/08/03 00:50:41;;;;;;;1.07;0.60;;;14.70;99.90;;;;;;5011894;28;20165;-74
2021/08/03 00:53:07;;;;;;;1.17;1.07;;;14.80;99.90;;;;;;5013775;28;20197;-74
2021/08/03 00:55:34;;;;;;;1.10;0.90;;;14.90;99.90;;;;;;5028382;28;20449;-75
2021/08/03 00:58:00;;;;;;;0.80;0.60;;;14.70;99.90;;;;;;5030881;28;20180;-75
2021/08/03 01:00:26;;;;;;;1.27;1.17;;;14.70;99.90;;;;;;5022448;28;20945;-74
2021/08/03 01:02:51;;;;;;;1.37;1.07;;;14.70;99.90;;;;;;5012079;28;20470;-74
2021/08/03 01:05:18;;;;;;;0.80;0.70;;;14.80;99.90;;;;;;5016867;28;20196;-74
2021/08/03 01:08:02;;;;;;;1.30;1.20;;;14.90;99.90;;;;;;5023808;28;20176;-74
2021/08/03 01:10:57;;;;;;;1.50;0.70;;;14.90;99.90;;;;;;5007099;28;20433;-74
2021/08/03 01:13:56;;;;;;;1.00;0.90;;;14.90;99.90;;;;;;5009814;28;20430;-74
2021/08/03 01:16:47;;;;;;;16.47;2.10;;;15.00;99.90;;;;;;5016457;28;20993;-74
2021/08/03 01:19:22;;;;;;;1.20;1.10;;;15.00;99.90;;;;;;5011945;28;20481;-74
2021/08/03 01:21:50;;;;;;;2.13;1.33;;;14.90;99.90;;;;;;5028391;28;20465;-75
2021/08/03 01:24:16;;;;;;;2.27;1.73;;;14.90;99.90;;;;;;5026301;28;20446;-75
2021/08/03 01:27:15;;;;;;;1.00;0.90;;;14.90;99.90;;;;;;5010656;28;20770;-73
2021/08/03 01:29:44;;;;;;;0.80;0.70;;;15.00;99.90;;;;;;5021395;28;20214;-73
2021/08/03 01:32:11;;;;;;;0.80;0.60;;;15.10;99.90;;;;;;5034917;28;20489;-74
2021/08/03 01:34:39;;;;;;;0.80;0.80;;;15.10;99.90;;;;;;5022436;28;20439;-75
2021/08/03 01:37:06;;;;;;;3.43;0.80;;;15.10;99.90;;;;;;5033671;28;20809;-75
2021/08/03 01:39:37;;;;;;;1.30;0.60;;;15.10;99.90;;;;;;5010734;28;20485;-74
2021/08/03 01:42:05;;;;;;;7.90;1.07;;;15.10;99.90;;;;;;5026543;28;20554;-74
2021/08/03 01:44:33;;;;;;;0.80;0.80;;;15.10;99.90;;;;;;5002767;28;20490;-74
2021/08/03 01:47:01;;;;;;;0.93;0.83;;;15.10;99.90;;;;;;5021329;28;20430;-73
2021/08/03 01:49:28;;;;;;;2.37;2.23;;;15.10;99.90;;;;;;5028754;28;20434;-74
2021/08/03 01:51:55;;;;;;;0.80;0.70;;;15.20;99.90;;;;;;5031088;28;20484;-73
2021/08/03 01:54:23;;;;;;;2.23;0.90;;;15.10;99.90;;;;;;5022460;28;20441;-75
2021/08/03 01:56:49;;;;;;;1.13;0.60;;;15.20;99.90;;;;;;5024818;28;20440;-74
2021/08/03 01:59:17;;;;;;;3.60;2.00;;;15.20;99.90;;;;;;5028153;28;20431;-73
2021/08/03 02:01:44;;;;;;;1.00;0.80;;;15.20;99.90;;;;;;5018539;28;20966;-75
2021/08/03 02:04:11;;;;;;;1.27;1.17;;;15.20;99.90;;;;;;5027662;28;20455;-75
2021/08/03 02:06:37;;;;;;;0.87;0.87;;;15.20;99.90;;;;;;5010772;28;20430;-74
2021/08/03 02:09:04;;;;;;;1.53;1.13;;;15.20;99.90;;;;;;5034038;28;20413;-74
2021/08/03 02:11:33;;;;;;;2.73;1.30;;;15.20;99.90;;;;;;5018258;28;20435;-74
2021/08/03 02:13:58;;;;;;;0.80;0.80;;;15.20;99.90;;;;;;5030108;28;20454;-74
2021/08/03 02:16:24;;;;;;;0.70;0.60;;;15.20;99.90;;;;;;5017722;28;20442;-75
2021/08/03 02:18:51;;;;;;;0.70;0.53;;;15.30;99.90;;;;;;5023167;28;20541;-74
2021/08/03 02:21:19;;;;;;;0.97;0.87;;;15.20;99.90;;;;;;5022622;28;20179;-74
2021/08/03 02:23:44;;;;;;;0.83;0.77;;;15.30;99.90;;;;;;4997023;28;20427;-74
2021/08/03 02:26:11;;;;;;;0.90;0.87;;;15.20;99.90;;;;;;5013659;28;20461;-74
2021/08/03 02:28:37;;;;;;;1.90;1.73;;;15.30;99.90;;;;;;4997831;28;20231;-75
2021/08/03 02:31:14;;;;;;;2.23;2.07;;;15.20;99.90;;;;;;5014398;28;20497;-74
2021/08/03 02:33:50;;;;;;;2.60;0.80;;;15.10;99.90;;;;;;5025028;28;20943;-74
2021/08/03 02:36:21;;;;;;;2.10;1.13;;;15.20;99.90;;;;;;5016090;28;20429;-74
2021/08/03 02:38:53;;;;;;;0.93;0.83;;;15.20;99.90;;;;;;5017796;28;20795;-74
2021/08/03 02:41:20;;;;;;;1.10;1.00;;;15.20;99.90;;;;;;5014474;28;20431;-75
2021/08/03 02:43:48;;;;;;;1.43;1.17;;;15.20;99.90;;;;;;5012862;28;20425;-75
2021/08/03 02:46:16;;;;;;;2.60;1.37;;;15.20;99.90;;;;;;5022921;28;20483;-74
2021/08/03 02:48:49;;;;;;;1.27;1.17;;;15.20;99.90;;;;;;5023280;28;20771;-74
2021/08/03 02:51:14;;;;;;;0.93;0.93;;;15.20;99.90;;;;;;5012810;28;20438;-74
2021/08/03 02:53:48;;;;;;;1.17;1.07;;;15.20;99.90;;;;;;5007118;28;20430;-74
2021/08/03 02:56:16;;;;;;;3.57;1.70;;;15.20;99.90;;;;;;5015278;28;20171;-74
2021/08/03 02:58:51;;;;;;;1.37;0.90;;;15.20;99.90;;;;;;5021670;28;20416;-74
2021/08/03 03:01:21;;;;;;;0.70;0.50;;;15.20;99.90;;;;;;5026184;28;20949;-74
2021/08/03 03:03:52;;;;;;;0.80;0.70;;;15.30;99.90;;;;;;5013266;28;20403;-74
2021/08/03 03:06:20;;;;;;;1.10;0.90;;;15.20;99.90;;;;;;5013391;28;20509;-74
2021/08/03 03:08:46;;;;;;;0.97;0.87;;;15.20;99.90;;;;;;5015298;28;20433;-74
2021/08/03 03:11:15;;;;;;;2.30;0.70;;;15.20;99.90;;;;;;5016761;28;20431;-75
2021/08/03 03:13:52;;;;;;;1.30;1.03;;;15.20;99.90;;;;;;5015488;28;20492;-74
2021/08/03 03:16:21;;;;;;;1.40;0.90;;;15.30;99.90;;;;;;5023692;28;20422;-74
2021/08/03 03:18:47;;;;;;;0.90;0.70;;;15.30;99.90;;;;;;5012286;28;20458;-74
2021/08/03 03:21:21;;;;;;;0.80;0.70;;;15.20;99.90;;;;;;5016092;28;20775;-75
2021/08/03 03:23:49;;;;;;;0.80;0.60;;;15.20;99.90;;;;;;5033007;28;20482;-74
2021/08/03 03:26:16;;;;;;;0.90;0.73;;;15.20;99.90;;;;;;5029083;28;20525;-74
2021/08/03 03:28:42;;;;;;;1.60;1.00;;;15.20;99.90;;;;;;5012825;28;20430;-74
2021/08/03 03:31:09;;;;;;;1.53;1.43;;;15.30;99.90;;;;;;5028630;28;20437;-74
2021/08/03 03:33:38;;;;;;;5.77;1.33;;;15.30;99.90;;;;;;5017931;28;20833;-75
2021/08/03 03:36:05;;;;;;;1.57;1.47;;;15.20;99.90;;;;;;5018055;28;20433;-75
2021/08/03 03:38:32;;;;;;;1.10;1.00;;;15.20;99.90;;;;;;5020944;28;20435;-74
2021/08/03 03:40:59;;;;;;;0.80;0.60;;;15.20;99.90;;;;;;5010464;28;20469;-74
2021/08/03 03:43:28;;;;;;;0.70;0.60;;;15.30;99.90;;;;;;5023188;28;21054;-74
2021/08/03 03:46:01;;;;;;;0.80;0.77;;;15.20;99.90;;;;;;5020170;28;20454;-74
2021/08/03 03:48:29;;;;;;;1.00;0.90;;;15.30;99.90;;;;;;5012525;28;20438;-74
2021/08/03 03:51:00;;;;;;;1.30;1.20;;;15.30;99.90;;;;;;5024113;28;20411;-74
2021/08/03 03:53:36;;;;;;;3.53;2.00;;;15.30;99.90;;;;;;4998025;28;20457;-75
2021/08/03 03:56:05;;;;;;;1.43;1.33;;;15.20;99.90;;;;;;5027713;28;20774;-74
2021/08/03 03:58:36;;;;;;;1.43;1.07;;;15.20;99.90;;;;;;5012422;28;20781;-74
2021/08/03 04:01:02;;;;;;;1.70;1.60;;;15.20;99.90;;;;;;5016583;28;20406;-75
2021/08/03 04:03:30;;;;;;;2.40;2.20;;;15.20;99.90;;;;;;5032452;28;20874;-74
2021/08/03 04:05:57;;;;;;;1.17;0.90;;;15.20;99.90;;;;;;5011884;28;20435;-74
2021/08/03 04:08:23;;;;;;;1.10;1.00;;;15.30;99.90;;;;;;5012291;28;20465;-76
2021/08/03 04:10:48;;;;;;;1.23;1.13;;;15.20;99.90;;;;;;5012799;28;20509;-74
2021/08/03 04:13:14;;;;;;;1.10;1.00;;;15.20;99.90;;;;;;5015554;28;20218;-73
2021/08/03 04:15:39;;;;;;;3.17;0.93;;;15.30;99.90;;;;;;5016723;28;20215;-74
2021/08/03 04:18:05;;;;;;;1.67;1.57;;;15.20;99.90;;;;;;4994827;28;20673;-74
2021/08/03 04:20:31;;;;;;;4.10;1.53;;;15.30;99.90;;;;;;5012200;28;20195;-73
2021/08/03 04:22:57;;;;;;;1.33;1.23;;;15.30;99.90;;;;;;5011368;28;20458;-75
2021/08/03 04:25:23;;;;;;;2.03;1.83;;;15.30;99.90;;;;;;5031168;28;20414;-75
2021/08/03 04:27:48;;;;;;;4.20;1.63;;;15.30;99.90;;;;;;5015093;28;20644;-73
2021/08/03 04:30:15;;;;;;;1.10;1.00;;;15.30;99.90;;;;;;5013744;28;20182;-74
2021/08/03 04:32:42;;;;;;;1.87;0.90;;;15.30;99.90;;;;;;5031818;28;20163;-74
2021/08/03 04:35:08;;;;;;;2.37;2.17;;;15.40;99.90;;;;;;5025413;28;20513;-75
2021/08/03 04:37:43;;;;;;;3.73;0.97;;;15.40;99.90;;;;;;5012672;28;20434;-74
2021/08/03 04:40:10;;;;;;;8.07;0.90;;;15.50;99.90;;;;;;5012030;28;20949;-74
2021/08/03 04:42:36;;;;;;;2.07;1.37;;;15.50;99.90;;;;;;5026868;28;20454;-74
2021/08/03 04:45:03;;;;;;;0.90;0.90;;;15.50;99.90;;;;;;5023630;28;20868;-74
2021/08/03 04:47:29;;;;;;;0.90;0.90;;;15.50;99.90;;;;;;5031256;28;20904;-75
2021/08/03 04:49:54;;;;;;;1.50;1.20;;;15.50;99.90;;;;;;5029513;28;20431;-75
2021/08/03 04:52:20;;;;;;;0.80;0.73;;;15.50;99.90;;;;;;5022135;28;20234;-74
2021/08/03 04:54:45;;;;;;;1.00;0.80;;;15.50;99.90;;;;;;5019395;28;20250;-74
2021/08/03 04:57:11;;;;;;;1.00;0.80;;;15.50;99.90;;;;;;5022403;28;20187;-75
2021/08/03 04:59:37;;;;;;;1.10;1.00;;;15.50;99.90;;;;;;5023165;28;20177;-74
2021/08/03 05:02:03;;;;;;;1.73;1.20;;;15.50;99.90;;;;;;5012227;28;20203;-74
2021/08/03 05:04:33;;;;;;;3.23;3.03;;;15.60;99.90;;;;;;5029727;28;20803;-74
2021/08/03 05:06:59;;;;;;;0.87;0.60;;;15.50;99.90;;;;;;5019017;28;20465;-74
2021/08/03 05:09:25;;;;;;;1.30;1.20;;;15.50;99.90;;;;;;5021450;28;20433;-74
2021/08/03 05:11:50;;;;;;;1.80;1.13;;;15.50;99.90;;;;;;5030337;28;20431;-74
2021/08/03 05:14:16;;;;;;;1.80;1.70;;;15.50;99.90;;;;;;5020033;28;20212;-76
2021/08/03 05:16:41;;;;;;;1.00;0.90;;;15.50;99.90;;;;;;5015263;28;20660;-74
2021/08/03 05:19:07;;;;;;;1.03;0.93;;;15.50;99.90;;;;;;5024021;28;20251;-74
2021/08/03 05:21:32;;;;;;;1.60;1.40;;;15.60;99.90;;;;;;5024025;28;20207;-75
2021/08/03 05:23:58;;;;;;;2.47;1.00;;;15.60;99.90;;;;;;5008387;28;20196;-75
2021/08/03 05:26:23;;;;;;;6.30;1.60;;;15.60;99.90;;;;;;5034794;28;20183;-74
2021/08/03 05:28:49;;;;;;;1.03;1.03;;;15.60;99.90;;;;;;5032235;28;20700;-75
2021/08/03 05:31:14;;;;;;;1.93;1.83;;;15.60;99.90;;;;;;5019050;28;20545;-74
2021/08/03 05:33:40;;;;;;;1.03;0.90;;;15.60;99.90;;;;;;5018116;28;20172;-74
2021/08/03 05:36:07;;;;;;;0.80;0.80;;;15.70;99.90;;;;;;5032905;28;20171;-75
2021/08/03 05:38:32;;;;;;;2.33;1.33;;;15.70;99.90;;;;;;5020220;28;20172;-74
2021/08/03 05:40:58;;;;;;;2.17;0.93;;;15.70;99.90;;;;;;5032705;28;20437;-74
2021/08/03 05:43:23;;;;;;;2.00;1.17;;;15.60;99.90;;;;;;5011622;28;20568;-75
2021/08/03 05:45:49;;;;;;;1.50;1.00;;;15.70;99.90;;;;;;5016575;28;20206;-74
2021/08/03 05:48:15;;;;;;;3.00;2.80;;;15.70;99.90;;;;;;5016238;28;20645;-76
2021/08/03 05:50:40;;;;;;;1.47;1.37;;;15.70;99.90;;;;;;5024807;28;20649;-74
2021/08/03 05:53:06;;;;;;;8.23;1.13;;;15.80;99.90;;;;;;5025899;28;20434;-74
2021/08/03 05:55:31;;;;;;;1.17;1.07;;;15.90;99.90;;;;;;5011482;28;20199;-74
2021/08/03 05:57:57;;;;;;;0.73;0.60;;;15.90;99.90;;;;;;5027126;28;20257;-75
2021/08/03 06:00:23;;;;;;;1.37;1.27;;;15.90;99.90;;;;;;5015293;28;20175;-73
2021/08/03 06:02:49;;;;;;;2.90;1.67;;;15.90;99.90;;;;;;5015734;28;20458;-75
2021/08/03 06:05:14;;;;;;;2.10;2.00;;;15.90;99.90;;;;;;5008151;28;20218;-75
2021/08/03 06:07:44;;;;;;;3.43;1.87;;;16.00;99.90;;;;;;5017494;28;20591;-75
2021/08/03 06:10:16;;;;;;;1.03;0.93;;;16.00;99.90;;;;;;5017377;28;20200;-75
2021/08/03 06:12:53;;;;;;;1.57;1.03;;;16.10;99.90;;;;;;5013457;28;20439;-74
2021/08/03 06:15:19;;;;;;;0.87;0.83;;;16.10;99.90;;;;;;5029827;28;20469;-74
2021/08/03 06:18:00;;;;;;;3.10;1.67;;;16.10;99.90;;;;;;5027199;28;20437;-74
2021/08/03 06:20:26;;;;;;;0.80;0.67;;;16.10;99.90;;;;;;5018891;28;20237;-75
2021/08/03 06:22:54;;;;;;;1.60;1.40;;;16.20;99.90;;;;;;5029005;28;20877;-74
2021/08/03 06:25:19;;;;;;;2.20;2.00;;;16.20;99.90;;;;;;5021149;28;20451;-74
2021/08/03 06:27:48;;;;;;;1.27;1.17;;;16.20;99.90;;;;;;5027786;28;20426;-75
2021/08/03 06:30:14;;;;;;;1.63;1.53;;;16.30;99.90;;;;;;4997454;28;20263;-74
2021/08/03 06:32:41;;;;;;;2.27;1.83;;;16.30;99.90;;;;;;5013351;28;20855;-74
2021/08/03 06:35:09;;;;;;;1.20;0.90;;;16.40;99.90;;;;;;5014079;28;20200;-75
2021/08/03 06:37:35;;;;;;;0.90;0.77;;;16.50;99.90;;;;;;5029300;28;20575;-74
2021/08/03 06:40:00;;;;;;;4.50;1.50;;;16.50;99.90;;;;;;5028321;28;20509;-74
2021/08/03 06:42:51;;;;;;;2.43;2.23;;;16.60;99.90;;;;;;5013393;28;20235;-75
2021/08/03 06:45:30;;;;;;;1.70;1.60;;;16.70;99.90;;;;;;5013188;28;20196;-74
2021/08/03 06:48:12;;;;;;;1.17;1.00;;;16.80;99.90;;;;;;5013873;28;20427;-74
2021/08/03 06:50:43;;;;;;;0.83;0.73;;;16.80;99.90;;;;;;5013450;28;20419;-74
2021/08/03 06:53:10;;;;;;;4.60;1.43;;;16.90;99.90;;;;;;4995695;28;20790;-74
2021/08/03 06:55:41;;;;;;;1.47;1.37;;;16.90;99.90;;;;;;5012641;28;20434;-75
2021/08/03 06:58:16;;;;;;;1.30;1.20;;;17.00;99.90;;;;;;5017446;28;20521;-74
2021/08/03 07:00:44;;;;;;;1.60;1.50;;;17.10;99.90;;;;;;5024444;28;20425;-74
2021/08/03 07:03:11;;;;;;;1.63;1.53;;;17.10;99.90;;;;;;5031785;28;20549;-74
2021/08/03 07:05:43;;;;;;;1.73;1.37;;;17.10;99.90;;;;;;5014952;28;20801;-73
2021/08/03 07:08:10;;;;;;;5.43;1.37;;;17.10;99.90;;;;;;5033103;28;20403;-74
2021/08/03 07:10:37;;;;;;;1.27;1.17;;;17.30;99.90;;;;;;5012088;28;20449;-75
2021/08/03 07:13:03;;;;;;;2.80;1.43;;;17.30;99.90;;;;;;5013175;28;20495;-74
2021/08/03 07:15:28;;;;;;;1.23;1.10;;;17.30;99.90;;;;;;5011416;28;20553;-74
2021/08/03 07:17:55;;;;;;;2.00;1.90;;;17.40;99.90;;;;;;4995471;28;20218;-75
2021/08/03 07:20:22;;;;;;;1.10;1.00;;;17.50;99.90;;;;;;5013235;28;20168;-74
2021/08/03 07:22:48;;;;;;;3.93;2.23;;;17.60;99.90;;;;;;5004170;28;20462;-74
2021/08/03 07:25:14;;;;;;;3.13;2.10;;;17.60;99.90;;;;;;5017059;28;20858;-75
2021/08/03 07:27:40;;;;;;;1.30;1.20;;;17.70;99.90;;;;;;5014861;28;20443;-74
2021/08/03 07:30:07;;;;;;;1.50;1.00;;;17.70;99.90;;;;;;5032607;28;20168;-74
2021/08/03 07:32:34;;;;;;;1.30;1.10;;;17.70;99.90;;;;;;5031800;28;20175;-74
2021/08/03 07:35:01;;;;;;;1.00;0.90;;;17.80;99.90;;;;;;5031447;28;20493;-74
2021/08/03 07:37:27;;;;;;;5.20;1.70;;;17.80;99.90;;;;;;5032623;28;20411;-73
2021/08/03 07:39:53;;;;;;;1.30;0.73;;;17.90;99.90;;;;;;5013046;28;20511;-74
2021/08/03 07:42:19;;;;;;;3.40;2.47;;;18.00;99.90;;;;;;5010318;28;20482;-74
2021/08/03 07:44:44;;;;;;;1.80;1.30;;;18.10;99.90;;;;;;4994940;28;20431;-75
2021/08/03 07:47:12;;;;;;;1.00;0.90;;;18.10;99.90;;;;;;5022538;28;20257;-75
2021/08/03 07:49:38;;;;;;;1.57;1.13;;;18.20;99.90;;;;;;5032325;28;20171;-74
2021/08/03 07:52:06;;;;;;;2.00;1.43;;;18.20;99.90;;;;;;5031556;28;20807;-74
2021/08/03 07:54:32;;;;;;;2.90;2.17;;;18.30;99.90;;;;;;5011802;28;20206;-74
2021/08/03 07:56:57;;;;;;;0.87;0.87;;;18.30;99.90;;;;;;5030701;28;20464;-74
2021/08/03 07:59:23;;;;;;;1.33;1.13;;;18.20;99.90;;;;;;5032151;28;20442;-74
2021/08/03 08:01:48;;;;;;;1.43;1.00;;;18.20;99.90;;;;;;5018366;28;20200;-74
2021/08/03 08:04:14;;;;;;;2.50;1.23;;;18.30;99.90;;;;;;5012398;28;20552;-75
2021/08/03 08:06:39;;;;;;;0.97;0.90;;;18.40;99.90;;;;;;5015222;28;20246;-74
2021/08/03 08:09:05;;;;;;;2.00;1.73;;;18.50;99.90;;;;;;5007111;28;20194;-75
2021/08/03 08:11:30;;;;;;;1.20;0.90;;;18.60;99.90;;;;;;5022549;28;20548;-74
2021/08/03 08:13:56;;;;;;;1.63;1.53;;;18.70;99.90;;;;;;5013303;28;20739;-74
2021/08/03 08:16:21;;;;;;;1.77;1.47;;;18.90;99.90;;;;;;5022275;28;20203;-75
2021/08/03 08:18:47;;;;;;;2.50;2.30;;;19.10;99.90;;;;;;4994580;28;20172;-75
2021/08/03 08:21:13;;;;;;;1.10;1.00;;;19.30;99.90;;;;;;5014692;28;20178;-74
2021/08/03 08:23:38;;;;;;;1.37;0.73;;;19.50;99.90;;;;;;5012860;28;20278;-74
2021/08/03 08:26:04;;;;;;;1.47;1.13;;;19.70;99.90;;;;;;5011432;28;20184;-75
2021/08/03 08:28:29;;;;;;;2.17;1.97;;;19.80;99.90;;;;;;5011782;28;20668;-74
2021/08/03 08:30:55;;;;;;;2.03;1.83;;;19.90;99.90;;;;;;4994326;28;20715;-75
2021/08/03 08:33:21;;;;;;;1.30;1.20;;;20.00;99.90;;;;;;5012128;28;20672;-74
2021/08/03 08:35:46;;;;;;;0.93;0.83;;;19.90;99.90;;;;;;5014114;28;20458;-74
2021/08/03 08:38:12;;;;;;;1.83;1.73;;;19.90;99.90;;;;;;5026190;28;20179;-75
2021/08/03 08:40:38;;;;;;;1.47;1.10;;;19.80;99.90;;;;;;5019458;28;20194;-74
2021/08/03 08:43:04;;;;;;;1.83;1.43;;;19.80;99.90;;;;;;5023426;28;20233;-74
2021/08/03 08:45:30;;;;;;;1.00;0.87;;;19.60;99.90;;;;;;5035410;28;20419;-74
2021/08/03 08:47:57;;;;;;;1.43;1.00;;;19.50;99.90;;;;;;5018240;28;20242;-75
2021/08/03 08:50:25;;;;;;;1.50;1.07;;;19.40;99.90;;;;;;5015339;28;20431;-74
2021/08/03 08:52:53;;;;;;;1.20;1.10;;;19.40;99.90;;;;;;5032299;28;20473;-75
2021/08/03 08:55:20;;;;;;;2.00;1.30;;;19.40;99.90;;;;;;5034443;28;20445;-75
2021/08/03 08:57:47;;;;;;;2.50;1.40;;;19.60;99.90;;;;;;5017140;28;20467;-75
2021/08/03 09:00:13;;;;;;;0.80;0.80;;;19.90;99.90;;;;;;5025342;28;21018;-75
2021/08/03 09:02:39;;;;;;;3.87;1.83;;;20.30;99.90;;;;;;5015546;28;20549;-74
2021/08/03 09:05:06;;;;;;;0.87;0.70;;;20.80;99.90;;;;;;5026994;28;20742;-76
2021/08/03 09:07:32;;;;;;;1.33;1.00;;;21.30;99.90;;;;;;5009945;28;20477;-75
2021/08/03 09:09:57;;;;;;;1.20;0.97;;;21.60;99.90;;;;;;5017795;28;20816;-75
2021/08/03 09:12:34;;;;;;;1.40;1.30;;;22.00;99.90;;;;;;5020498;28;20180;-76
2021/08/03 09:15:00;;;;;;;1.30;1.20;;;22.50;99.90;;;;;;5005382;28;20302;-76
2021/08/03 09:17:27;;;;;;;1.30;0.83;;;22.80;99.90;;;;;;5015242;28;20486;-76
2021/08/03 09:19:53;;;;;;;1.00;0.90;;;22.80;99.90;;;;;;5015432;28;20195;-76
2021/08/03 09:22:23;;;;;;;1.30;1.10;;;23.00;99.90;;;;;;5014789;28;20494;-76
2021/08/03 09:25:08;;;;;;;0.80;0.80;;;23.10;99.90;;;;;;5030786;28;20449;-75
2021/08/03 09:27:43;;;;;;;2.20;2.00;;;23.20;99.90;;;;;;5033614;28;20760;-76
2021/08/03 09:30:17;;;;;;;2.20;1.80;;;23.30;99.90;;;;;;5034963;28;20443;-75
2021/08/03 09:32:44;;;;;;;1.17;1.07;;;23.20;99.90;;;;;;5023217;28;21035;-75
2021/08/03 09:35:15;;;;;;;1.40;1.20;;;23.30;99.90;;;;;;5024039;28;20958;-74
2021/08/03 09:37:42;;;;;;;1.00;0.90;;;23.20;99.90;;;;;;5033565;28;20414;-75
2021/08/03 09:40:27;;;;;;;1.20;1.10;;;23.20;99.90;;;;;;5032871;28;20472;-75
2021/08/03 09:43:13;;;;;;;1.53;1.07;;;23.00;99.90;;;;;;5024105;28;20445;-75
2021/08/03 09:45:44;;;;;;;1.40;1.10;;;22.80;99.90;;;;;;5034108;28;20433;-76
2021/08/03 09:48:17;;;;;;;0.90;0.80;;;22.60;99.90;;;;;;5019005;28;20416;-75
2021/08/03 09:50:58;;;;;;;0.87;0.73;;;22.20;99.90;;;;;;5017288;28;20515;-74
2021/08/03 09:53:36;;;;;;;1.00;0.90;;;21.80;99.90;;;;;;5014640;28;20405;-75
2021/08/03 09:56:01;;;;;;;1.17;1.07;;;21.50;99.90;;;;;;5014960;28;20411;-75
2021/08/03 09:58:27;;;;;;;0.97;0.87;;;21.30;99.90;;;;;;5034406;28;20489;-73
2021/08/03 10:00:53;;;;;;;2.50;1.17;;;21.10;99.90;;;;;;5022552;28;20263;-75
2021/08/03 10:03:19;;;;;;;1.50;0.80;;;20.80;99.90;;;;;;5014438;28;20191;-75
2021/08/03 10:05:45;;;;;;;1.30;1.13;;;20.60;99.90;;;;;;5012523;28;20423;-74
2021/08/03 10:08:11;;;;;;;2.60;1.43;;;20.40;99.90;;;;;;5034011;28;20687;-74
2021/08/03 10:10:37;;;;;;;1.13;1.03;;;20.10;99.90;;;;;;5015367;28;20422;-75
2021/08/03 10:13:04;;;;;;;0.80;0.80;;;20.00;99.90;;;;;;5014486;28;20180;-74
2021/08/03 10:15:29;;;;;;;1.07;0.97;;;19.90;99.90;;;;;;5013507;28;20204;-74
2021/08/03 10:17:55;;;;;;;1.47;1.07;;;19.80;99.90;;;;;;5014219;28;20501;-74
2021/08/03 10:20:21;;;;;;;3.20;1.13;;;19.80;99.90;;;;;;5014231;28;20173;-75
2021/08/03 10:23:00;;;;;;;0.87;0.80;;;19.90;99.90;;;;;;5015268;28;20200;-74
2021/08/03 10:25:36;;;;;;;0.80;0.70;;;19.80;99.90;;;;;;5029257;28;20618;-74
2021/08/03 10:28:19;;;;;;;0.90;0.77;;;19.80;99.90;;;;;;4998012;28;20476;-75
2021/08/03 10:30:44;;;;;;;1.03;0.93;;;19.70;99.90;;;;;;5026608;28;20422;-74
2021/08/03 10:33:44;;;;;;;1.90;0.97;;;19.70;99.90;;;;;;5033798;28;20734;-74
2021/08/03 10:36:41;;;;;;;1.20;0.77;;;19.60;99.90;;;;;;5031869;28;20237;-75
2021/08/03 10:39:08;;;;;;;1.50;1.17;;;19.70;99.90;;;;;;5014876;28;20835;-75
2021/08/03 10:41:59;;;;;;;1.30;1.20;;;19.50;99.90;;;;;;5019251;28;20466;-75
2021/08/03 10:44:45;;;;;;;1.03;0.70;;;19.60;99.90;;;;;;5013584;28;20427;-75
2021/08/03 10:47:41;;;;;;;1.53;1.10;;;19.60;99.90;;;;;;5016730;28;20458;-74
2021/08/03 10:50:07;;;;;;;0.90;0.80;;;19.60;99.90;;;;;;5018094;28;20426;-74
2021/08/03 10:52:46;;;;;;;1.27;1.17;;;19.70;99.90;;;;;;5023831;28;20427;-75
2021/08/03 10:55:40;;;;;;;0.80;0.70;;;19.70;99.90;;;;;;5016012;28;20461;-74
2021/08/03 10:58:08;;;;;;;2.00;1.40;;;19.70;99.90;;;;;;5020321;28;20792;-75
2021/08/03 11:00:44;;;;;;;1.03;0.93;;;19.80;99.90;;;;;;5013223;28;20574;-74
2021/08/03 11:03:34;;;;;;;0.97;0.83;;;19.80;99.90;;;;;;5013621;28;20453;-75
2021/08/03 11:06:03;;;;;;;1.13;0.90;;;19.90;99.90;;;;;;5018703;28;20442;-75
2021/08/03 11:08:35;;;;;;;0.97;0.90;;;20.00;99.90;;;;;;5011863;28;20462;-75
2021/08/03 11:11:27;;;;;;;1.47;1.37;;;20.30;99.90;;;;;;5029074;28;20422;-74
2021/08/03 11:13:55;;;;;;;1.43;1.20;;;20.40;99.90;;;;;;5032337;28;20410;-74
2021/08/03 11:16:23;;;;;;;2.83;1.70;;;20.40;99.90;;;;;;5025246;28;20434;-75
2021/08/03 11:18:54;;;;;;;2.33;2.20;;;20.60;99.90;;;;;;5028405;28;20458;-75
2021/08/03 11:21:25;;;;;;;1.10;0.80;;;20.80;99.90;;;;;;4998790;28;20423;-76
2021/08/03 11:23:53;;;;;;;1.30;1.20;;;21.00;99.90;;;;;;5032701;28;20449;-75
2021/08/03 11:26:20;;;;;;;1.17;1.00;;;21.20;99.90;;;;;;5028111;28;20497;-75
2021/08/03 11:29:02;;;;;;;0.90;0.73;;;21.30;99.90;;;;;;5013007;28;21072;-74
2021/08/03 11:31:51;;;;;;;1.63;1.03;;;21.50;99.90;;;;;;5012627;28;20433;-75
2021/08/03 11:34:22;;;;;;;3.43;1.00;;;21.70;99.90;;;;;;5027893;28;20444;-75
2021/08/03 11:36:56;;;;;;;1.20;0.90;;;21.70;99.90;;;;;;5031582;28;20414;-76
2021/08/03 11:39:26;;;;;;;1.73;1.30;;;21.80;99.90;;;;;;5031782;28;20476;-74
2021/08/03 11:41:53;;;;;;;1.00;0.87;;;21.80;99.90;;;;;;5018057;28;20994;-74
2021/08/03 11:44:20;;;;;;;0.80;0.60;;;21.80;99.90;;;;;;5012697;28;20426;-74
2021/08/03 11:46:53;;;;;;;1.13;1.03;;;21.90;99.90;;;;;;5019111;28;20434;-75
2021/08/03 11:49:25;;;;;;;1.83;1.50;;;22.00;99.90;;;;;;5021637;28;20426;-75
2021/08/03 11:51:50;;;;;;;1.00;0.87;;;22.20;99.90;;;;;;5030280;28;20460;-75
2021/08/03 11:54:17;;;;;;;0.80;0.70;;;22.30;99.90;;;;;;5021358;28;20546;-75
2021/08/03 11:56:44;;;;;;;1.73;1.00;;;22.40;99.90;;;;;;5013098;28;20176;-76
2021/08/03 11:59:13;;;;;;;1.10;0.70;;;22.40;99.90;;;;;;5014519;28;20414;-75
2021/08/03 12:01:57;;;;;;;1.37;0.93;;;22.30;99.90;;;;;;5013758;28;20475;-75
2021/08/03 12:04:23;;;;;;;1.07;0.80;;;22.10;99.90;;;;;;5031291;28;20449;-75
2021/08/03 12:06:50;;;;;;;0.90;0.70;;;22.10;99.90;;;;;;5031794;28;20409;-75
2021/08/03 12:09:20;;;;;;;0.90;0.60;;;22.10;99.90;;;;;;5025237;28;20423;-74
2021/08/03 12:11:57;;;;;;;1.60;1.20;;;22.20;99.90;;;;;;5019789;28;20463;-74
2021/08/03 12:14:33;;;;;;;1.00;0.80;;;22.30;99.90;;;;;;5013450;28;20470;-74
2021/08/03 12:16:59;;;;;;;1.20;1.00;;;22.50;99.90;;;;;;5012200;28;20510;-75
2021/08/03 12:19:31;;;;;;;1.30;1.00;;;22.80;99.90;;;;;;5021910;28;20446;-75
2021/08/03 12:21:57;;;;;;;1.00;0.90;;;23.10;99.90;;;;;;5015891;28;21438;-74
2021/08/03 12:24:23;;;;;;;2.20;0.90;;;23.40;99.90;;;;;;5013899;28;20879;-75
2021/08/03 12:27:08;;;;;;;1.17;0.97;;;23.50;99.90;;;;;;5014708;28;20430;-76
2021/08/03 12:29:34;;;;;;;1.33;0.90;;;23.70;99.90;;;;;;5010566;28;20427;-75
2021/08/03 12:31:59;;;;;;;1.33;0.80;;;23.90;99.90;;;;;;5023512;28;20859;-76
2021/08/03 12:34:33;;;;;;;1.33;1.23;;;24.00;99.90;;;;;;5020833;28;20251;-75
2021/08/03 12:36:59;;;;;;;0.90;0.70;;;24.10;99.90;;;;;;5019118;28;20184;-75
2021/08/03 12:39:31;;;;;;;1.00;0.70;;;24.00;99.90;;;;;;5024847;28;20454;-76
2021/08/03 12:42:10;;;;;;;0.90;0.67;;;23.80;99.90;;;;;;5023312;28;20458;-76
2021/08/03 12:44:39;;;;;;;1.20;1.10;;;23.80;99.90;;;;;;5022551;28;20461;-75
2021/08/03 12:47:14;;;;;;;1.10;0.80;;;23.70;99.90;;;;;;5017190;28;20818;-76
2021/08/03 12:49:45;;;;;;;0.80;0.70;;;23.60;99.90;;;;;;5013644;28;20481;-75
2021/08/03 12:52:13;;;;;;;1.13;0.90;;;23.40;99.90;;;;;;5017748;28;20438;-74
2021/08/03 12:54:40;;;;;;;6.50;0.97;;;23.30;99.90;;;;;;5011158;28;20478;-75
2021/08/03 12:57:06;;;;;;;1.13;1.03;;;23.20;99.90;;;;;;5011177;28;20477;-75
2021/08/03 12:59:35;;;;;;;1.40;1.30;;;23.20;99.90;;;;;;5025716;28;20450;-75